createdAt,value
2019-06-01T00:03:06.128Z,12.90
2019-06-01T00:07:52.133Z,12.90
2019-06-01T00:12:39.199Z,12.70
2019-06-01T00:17:25.313Z,12.70
2019-06-01T00:22:11.198Z,12.40
2019-06-01T00:26:56.933Z,12.50
2019-06-01T00:31:43.112Z,12.40
2019-06-01T00:36:29.107Z,12.40
2019-06-01T00:41:14.887Z,12.30
2019-06-01T00:46:00.642Z,12.20
2019-06-01T00:50:46.828Z,12.20
2019-06-01T00:55:32.871Z,12.20
2019-06-01T01:00:18.772Z,12.00
2019-06-01T01:05:16.244Z,11.90
2019-06-01T01:10:02.020Z,12.00
2019-06-01T01:14:47.694Z,11.70
2019-06-01T01:19:33.566Z,11.70
2019-06-01T01:24:19.275Z,11.60
2019-06-01T01:29:05.438Z,11.50
2019-06-01T01:33:51.419Z,11.40
2019-06-01T01:38:37.371Z,11.40
2019-06-01T01:43:23.479Z,11.40
2019-06-01T01:48:09.337Z,11.30
2019-06-01T01:52:56.820Z,11.30
2019-06-01T01:57:43.016Z,11.20
2019-06-01T02:02:29.842Z,11.20
2019-06-01T02:07:15.765Z,11.30
2019-06-01T02:12:02.003Z,11.40
2019-06-01T02:16:47.839Z,11.20
2019-06-01T02:21:33.558Z,11.10
2019-06-01T02:26:19.301Z,11.00
2019-06-01T02:31:05.269Z,10.90
2019-06-01T02:35:50.965Z,11.10
2019-06-01T02:40:37.008Z,11.00
2019-06-01T02:45:24.635Z,11.00
2019-06-01T02:50:10.968Z,11.00
2019-06-01T02:54:57.765Z,10.80
2019-06-01T02:59:43.699Z,10.70
2019-06-01T03:04:29.636Z,10.60
2019-06-01T03:09:15.373Z,10.30
2019-06-01T03:14:04.525Z,10.40
2019-06-01T03:18:53.428Z,10.50
2019-06-01T03:23:42.380Z,10.30
2019-06-01T03:28:30.973Z,10.40
2019-06-01T03:33:16.753Z,10.30
2019-06-01T03:38:03.000Z,10.30
2019-06-01T03:42:49.065Z,10.30
2019-06-01T03:47:34.804Z,10.50
2019-06-01T03:52:20.662Z,10.60
2019-06-01T03:57:07.256Z,10.50
2019-06-01T04:01:53.135Z,10.30
2019-06-01T04:06:38.877Z,10.40
2019-06-01T04:11:24.742Z,10.70
2019-06-01T04:16:10.506Z,10.80
2019-06-01T04:20:56.235Z,10.90
2019-06-01T04:25:42.172Z,11.30
2019-06-01T04:30:28.629Z,11.60
2019-06-01T04:35:14.507Z,11.80
2019-06-01T04:40:00.292Z,12.10
2019-06-01T04:44:46.061Z,12.40
2019-06-01T04:49:32.265Z,12.80
2019-06-01T04:54:18.013Z,13.10
2019-06-01T04:59:04.919Z,13.40
2019-06-01T05:03:50.685Z,13.60
2019-06-01T05:08:36.485Z,14.00
2019-06-01T05:13:22.663Z,14.30
2019-06-01T05:18:08.450Z,14.60
2019-06-01T05:22:54.187Z,14.80
2019-06-01T05:27:40.378Z,15.20
2019-06-01T05:32:26.175Z,15.50
2019-06-01T05:37:12.386Z,15.80
2019-06-01T05:41:58.133Z,16.10
2019-06-01T05:46:43.937Z,16.50
2019-06-01T05:51:29.634Z,16.70
2019-06-01T05:56:16.763Z,17.00
2019-06-01T06:01:02.753Z,17.10
2019-06-01T06:05:48.561Z,17.30
2019-06-01T06:10:34.448Z,17.30
2019-06-01T06:15:20.170Z,17.50
2019-06-01T06:20:06.693Z,17.70
2019-06-01T06:24:52.513Z,18.00
2019-06-01T06:29:38.267Z,18.40
2019-06-01T06:34:24.016Z,18.80
2019-06-01T06:39:28.669Z,19.10
2019-06-01T06:44:14.520Z,19.30
2019-06-01T06:49:00.408Z,19.60
2019-06-01T06:53:46.432Z,19.70
2019-06-01T06:58:32.275Z,20.00
2019-06-01T07:03:18.936Z,20.30
2019-06-01T07:08:04.771Z,20.50
2019-06-01T07:12:50.744Z,20.60
2019-06-01T07:17:36.709Z,20.50
2019-06-01T07:22:23.682Z,20.70
2019-06-01T07:27:09.989Z,21.10
2019-06-01T07:31:56.744Z,21.30
2019-06-01T07:36:42.733Z,21.40
2019-06-01T07:41:30.488Z,21.80
2019-06-01T07:46:16.434Z,22.00
2019-06-01T07:51:02.328Z,22.40
2019-06-01T07:55:48.128Z,22.60
2019-06-01T08:00:34.127Z,22.80
2019-06-01T08:05:19.909Z,22.90
2019-06-01T08:10:06.231Z,23.00
2019-06-01T08:14:52.261Z,23.20
2019-06-01T08:19:57.128Z,23.10
2019-06-01T08:24:43.120Z,23.60
2019-06-01T08:29:29.043Z,24.10
2019-06-01T08:34:14.779Z,24.70
2019-06-01T08:39:00.699Z,24.10
2019-06-01T08:43:46.420Z,24.20
2019-06-01T08:48:32.312Z,24.00
2019-06-01T08:53:19.646Z,24.50
2019-06-01T08:58:05.692Z,24.60
2019-06-01T09:02:51.700Z,25.50
2019-06-01T09:07:39.127Z,25.80
2019-06-01T09:12:25.345Z,26.30
2019-06-01T09:17:11.881Z,25.90
2019-06-01T09:21:58.061Z,26.70
2019-06-01T09:26:44.037Z,26.40
2019-06-01T09:31:30.341Z,26.70
2019-06-01T09:36:16.708Z,27.20
2019-06-01T09:41:02.629Z,27.30
2019-06-01T09:45:53.328Z,27.80
2019-06-01T09:50:38.727Z,27.80
2019-06-01T09:55:25.102Z,27.90
2019-06-01T10:00:13.222Z,28.60
2019-06-01T10:04:59.174Z,29.00
2019-06-01T10:09:46.706Z,28.00
2019-06-01T10:14:32.504Z,28.80
2019-06-01T10:19:19.645Z,28.40
2019-06-01T10:24:05.636Z,28.80
2019-06-01T10:28:52.815Z,29.20
2019-06-01T10:33:39.238Z,29.90
2019-06-01T10:38:44.395Z,30.50
2019-06-01T10:43:31.949Z,30.50
2019-06-01T10:48:18.210Z,30.50
2019-06-01T10:53:03.931Z,30.20
2019-06-01T10:57:50.173Z,30.50
2019-06-01T11:02:36.654Z,30.40
2019-06-01T11:07:25.119Z,30.40
2019-06-01T11:12:11.019Z,30.90
2019-06-01T11:16:56.997Z,30.80
2019-06-01T11:21:43.793Z,31.20
2019-06-01T11:26:30.882Z,30.90
2019-06-01T11:31:17.061Z,32.20
2019-06-01T11:36:03.493Z,32.10
2019-06-01T11:40:50.716Z,31.80
2019-06-01T11:45:40.763Z,32.30
2019-06-01T11:50:27.201Z,32.10
2019-06-01T11:55:13.775Z,32.10
2019-06-01T12:00:00.094Z,32.90
2019-06-01T12:04:46.435Z,32.70
2019-06-01T12:09:32.853Z,33.50
2019-06-01T12:14:20.543Z,33.80
2019-06-01T12:19:06.826Z,33.80
2019-06-01T12:23:53.532Z,34.40
2019-06-01T12:28:39.618Z,33.60
2019-06-01T12:33:25.774Z,33.70
2019-06-01T12:38:12.055Z,34.40
2019-06-01T12:42:58.477Z,34.80
2019-06-01T12:47:48.349Z,34.80
2019-06-01T12:52:33.344Z,35.30
2019-06-01T12:57:19.685Z,35.40
2019-06-01T13:02:07.335Z,35.10
2019-06-01T13:06:54.296Z,34.80
2019-06-01T13:11:41.289Z,36.00
2019-06-01T13:16:28.634Z,36.20
2019-06-01T13:21:16.183Z,36.00
2019-06-01T13:26:03.254Z,35.90
2019-06-01T13:30:51.169Z,36.00
2019-06-01T13:35:38.998Z,36.40
2019-06-01T13:40:27.415Z,36.00
2019-06-01T13:45:14.879Z,36.50
2019-06-01T13:50:06.522Z,36.60
2019-06-01T13:54:54.898Z,36.20
2019-06-01T13:59:44.510Z,37.40
2019-06-01T14:04:40.345Z,35.90
2019-06-01T14:09:32.357Z,36.20
2019-06-01T14:14:18.843Z,36.60
2019-06-01T14:19:06.891Z,36.90
2019-06-01T14:23:54.052Z,36.60
2019-06-01T14:28:40.998Z,37.40
2019-06-01T14:33:27.599Z,37.20
2019-06-01T14:38:14.036Z,38.00
2019-06-01T14:43:00.583Z,38.40
2019-06-01T14:47:47.936Z,38.20
2019-06-01T14:52:35.279Z,38.10
2019-06-01T14:57:21.693Z,38.20
2019-06-01T15:02:08.458Z,38.30
2019-06-01T15:06:54.633Z,39.20
2019-06-01T15:11:41.154Z,38.90
2019-06-01T15:16:29.196Z,38.10
2019-06-01T15:21:34.273Z,38.30
2019-06-01T15:26:32.065Z,37.10
2019-06-01T15:31:18.525Z,38.30
2019-06-01T15:36:04.442Z,38.40
2019-06-01T15:40:51.760Z,38.30
2019-06-01T15:45:44.212Z,37.90
2019-06-01T15:50:30.217Z,37.60
2019-06-01T15:55:16.955Z,36.60
2019-06-01T16:00:03.506Z,36.90
2019-06-01T16:04:49.827Z,37.40
2019-06-01T16:09:42.593Z,37.40
2019-06-01T16:14:23.471Z,37.00
2019-06-01T16:19:10.917Z,36.40
2019-06-01T16:23:58.314Z,35.70
2019-06-01T16:28:44.904Z,36.70
2019-06-01T16:33:31.012Z,36.10
2019-06-01T16:38:17.110Z,35.60
2019-06-01T16:43:05.702Z,35.30
2019-06-01T16:47:52.161Z,36.20
2019-06-01T16:52:38.246Z,36.00
2019-06-01T16:57:24.591Z,35.80
2019-06-01T17:02:10.784Z,34.60
2019-06-01T17:07:05.074Z,33.90
2019-06-01T17:11:49.513Z,32.50
2019-06-01T17:16:37.045Z,31.50
2019-06-01T17:21:24.855Z,32.90
2019-06-01T17:26:23.173Z,33.70
2019-06-01T17:31:08.340Z,34.20
2019-06-01T17:35:54.908Z,34.10
2019-06-01T17:40:43.460Z,33.80
2019-06-01T17:45:29.783Z,34.30
2019-06-01T17:50:18.340Z,34.30
2019-06-01T17:55:04.982Z,33.70
2019-06-01T17:59:51.298Z,33.70
2019-06-01T18:04:37.242Z,34.10
2019-06-01T18:09:33.872Z,32.50
2019-06-01T18:14:20.961Z,30.00
2019-06-01T18:19:08.842Z,28.10
2019-06-01T18:23:56.486Z,26.90
2019-06-01T18:28:42.548Z,26.00
2019-06-01T18:33:28.736Z,25.30
2019-06-01T18:38:15.369Z,25.00
2019-06-01T18:43:09.967Z,24.40
2019-06-01T18:47:56.688Z,23.90
2019-06-01T18:52:43.055Z,23.50
2019-06-01T18:57:30.595Z,23.10
2019-06-01T19:02:17.292Z,22.80
2019-06-01T19:07:03.362Z,22.30
2019-06-01T19:11:51.164Z,21.90
2019-06-01T19:16:37.369Z,21.50
2019-06-01T19:21:23.664Z,21.20
2019-06-01T19:26:13.362Z,21.00
2019-06-01T19:30:58.073Z,20.80
2019-06-01T19:35:44.414Z,20.50
2019-06-01T19:40:35.836Z,20.30
2019-06-01T19:45:28.884Z,20.00
2019-06-01T19:50:10.396Z,19.80
2019-06-01T19:54:56.634Z,19.60
2019-06-01T19:59:42.903Z,19.40
2019-06-01T20:04:29.020Z,19.30
2019-06-01T20:09:15.319Z,19.40
2019-06-01T20:14:01.665Z,19.20
2019-06-01T20:18:47.619Z,19.00
2019-06-01T20:23:33.575Z,18.90
2019-06-01T20:28:19.754Z,18.90
2019-06-01T20:33:05.944Z,18.80
2019-06-01T20:37:52.135Z,18.70
2019-06-01T20:42:38.014Z,18.60
2019-06-01T20:47:23.986Z,18.50
2019-06-01T20:52:09.833Z,18.40
2019-06-01T20:56:55.869Z,18.40
2019-06-01T21:01:41.729Z,18.40
2019-06-01T21:06:27.554Z,18.10
2019-06-01T21:11:13.930Z,17.90
2019-06-01T21:16:00.164Z,17.70
2019-06-01T21:20:46.234Z,17.70
2019-06-01T21:25:32.370Z,17.60
2019-06-01T21:30:22.316Z,17.50
2019-06-01T21:35:07.895Z,17.50
2019-06-01T21:39:53.989Z,17.50
2019-06-01T21:44:40.364Z,17.60
2019-06-01T21:49:26.834Z,17.50
2019-06-01T21:54:12.914Z,16.90
2019-06-01T21:58:58.699Z,16.80
2019-06-01T22:03:44.752Z,16.80
2019-06-01T22:08:30.721Z,16.70
2019-06-01T22:13:19.275Z,16.60
2019-06-01T22:18:04.540Z,16.50
2019-06-01T22:22:50.271Z,16.30
2019-06-01T22:27:36.202Z,16.00
2019-06-01T22:32:25.879Z,15.80
2019-06-01T22:37:10.102Z,15.60
2019-06-01T22:41:55.905Z,15.70
2019-06-01T22:46:41.970Z,15.70
2019-06-01T22:51:29.387Z,15.60
2019-06-01T22:56:16.850Z,15.60
2019-06-01T23:01:02.594Z,15.50
2019-06-01T23:05:48.482Z,15.50
2019-06-01T23:10:35.566Z,15.10
2019-06-01T23:15:40.728Z,15.20
2019-06-01T23:20:28.065Z,15.10
2019-06-01T23:25:14.300Z,15.00
2019-06-01T23:30:03.386Z,14.90
2019-06-01T23:34:49.223Z,14.90
2019-06-01T23:39:35.105Z,15.10
2019-06-01T23:44:20.913Z,15.10
2019-06-01T23:49:06.918Z,15.00
2019-06-01T23:53:52.823Z,14.80
2019-06-01T23:58:38.564Z,14.80
